Decoded Metar for CYBW (CALGARY/SPRINGBA in AB, CANADA) (IATA:YBW) | Meteo·Mobile Aviation Weather
aviador You're here:

CYBW Decoded Metar

CALGARY/SPRINGBA in AB, CANADA
Report Time2018-11-19 09:00:00
UTC Time2018-11-19 09:43:37
Flight Rules vfr VFR
Wind310° at 05 kt
W.Decomp.*RWY 26: 4.1 kt HW 2.9 kt RCW
RWY 35: 2.9 kt HW 4.1 kt LCW
W.Rank310° ranks 2
Current wind is below 310° avg. (6.2)
Visibility9999 m
Phenomena:N/A
Clouds:Few 075 Hf
Expected CloudBase > 800 ft AGL from Temp-Dew spread
CeilingNone
Temp00°C (ISA -7)
Dew Point-2°C (87% RH)
AAT-4.0°C
QNH1018 hPa
Density Alt2,982 ft
Elevation3,937 ft
Report Wrong Elevation
Raw Report
CYBW 190900Z AUTO 31005KT 9SM FEW075 M00/M02 A3006 RMK SLP223=

Extra information for CYBW:More info

Metar Taf Metar & Taf Last 4 Metars F.Rules Stats Wind Profile Meteogram Temp Stats Airport Information Weather charts Add Link Nearby VenuesMetar ALERT Operation Metar Decoded Social comments